createdAt,value
2023-09-03T00:00:05.238Z,63.84
2023-09-03T00:02:40.771Z,63.75
2023-09-03T00:05:08.343Z,63.80
2023-09-03T00:07:35.543Z,63.87
2023-09-03T00:10:03.089Z,63.74
2023-09-03T00:12:31.087Z,63.76
2023-09-03T00:14:59.576Z,63.81
2023-09-03T00:17:27.172Z,64.02
2023-09-03T00:19:54.345Z,63.84
2023-09-03T00:22:21.598Z,64.05
2023-09-03T00:24:49.318Z,64.13
2023-09-03T00:27:16.975Z,64.31
2023-09-03T00:29:44.105Z,64.39
2023-09-03T00:32:11.305Z,64.35
2023-09-03T00:34:38.593Z,64.30
2023-09-03T00:37:06.458Z,64.49
2023-09-03T00:39:34.158Z,64.68
2023-09-03T00:42:01.493Z,64.73
2023-09-03T00:44:29.235Z,64.84
2023-09-03T00:46:56.822Z,64.63
2023-09-03T00:49:26.129Z,64.78
2023-09-03T00:51:54.858Z,65.09
2023-09-03T00:54:24.996Z,65.25
2023-09-03T00:56:54.991Z,65.46
2023-09-03T00:59:24.200Z,65.22
2023-09-03T01:01:53.286Z,65.27
2023-09-03T01:04:20.603Z,65.04
2023-09-03T01:06:52.876Z,65.38
2023-09-03T01:09:20.918Z,64.85
2023-09-03T01:12:30.094Z,65.38
2023-09-03T01:15:15.787Z,65.57
2023-09-03T01:17:49.563Z,65.51
2023-09-03T01:20:21.215Z,65.37
2023-09-03T01:23:04.898Z,65.76
2023-09-03T01:25:55.234Z,66.06
2023-09-03T01:28:32.870Z,66.11
2023-09-03T01:31:07.392Z,66.33
2023-09-03T01:33:35.741Z,66.04
2023-09-03T01:36:07.506Z,66.01
2023-09-03T01:38:35.285Z,66.59
2023-09-03T01:41:02.855Z,66.45
2023-09-03T01:43:31.380Z,66.42
2023-09-03T01:46:07.843Z,66.90
2023-09-03T01:48:53.190Z,67.13
2023-09-03T01:51:33.156Z,67.19
2023-09-03T01:54:10.060Z,67.08
2023-09-03T01:56:44.570Z,66.74
2023-09-03T01:59:15.307Z,66.89
2023-09-03T02:01:43.911Z,66.87
2023-09-03T02:04:11.413Z,66.93
2023-09-03T02:06:38.966Z,67.09
2023-09-03T02:09:06.729Z,67.32
2023-09-03T02:11:33.924Z,67.43
2023-09-03T02:14:01.524Z,67.34
2023-09-03T02:16:30.200Z,67.47
2023-09-03T02:18:57.626Z,67.29
2023-09-03T02:21:25.420Z,67.40
2023-09-03T02:23:52.924Z,67.29
2023-09-03T02:26:20.241Z,67.51
2023-09-03T02:28:47.439Z,67.34
2023-09-03T02:31:14.612Z,67.27
2023-09-03T02:33:41.765Z,67.22
2023-09-03T02:36:09.427Z,67.27
2023-09-03T02:38:36.575Z,67.28
2023-09-03T02:41:03.904Z,67.32
2023-09-03T02:43:31.206Z,67.44
2023-09-03T02:46:00.307Z,67.29
2023-09-03T02:48:27.524Z,67.36
2023-09-03T02:50:54.918Z,67.32
2023-09-03T02:53:22.150Z,67.13
2023-09-03T02:55:49.714Z,67.23
2023-09-03T02:58:17.547Z,67.10
2023-09-03T03:00:44.737Z,67.06
2023-09-03T03:03:13.761Z,67.17
2023-09-03T03:05:41.086Z,67.24
2023-09-03T03:08:09.851Z,67.27
2023-09-03T03:10:37.144Z,67.57
2023-09-03T03:13:04.583Z,67.42
2023-09-03T03:15:32.081Z,67.40
2023-09-03T03:17:59.996Z,67.39
2023-09-03T03:20:27.369Z,67.24
2023-09-03T03:22:54.604Z,66.98
2023-09-03T03:25:23.920Z,66.89
2023-09-03T03:27:51.085Z,66.70
2023-09-03T03:30:19.300Z,66.47
2023-09-03T03:32:46.711Z,66.17
2023-09-03T03:35:14.109Z,66.13
2023-09-03T03:37:41.343Z,65.95
2023-09-03T03:40:08.905Z,65.82
2023-09-03T03:42:37.735Z,65.53
2023-09-03T03:45:05.723Z,65.56
2023-09-03T03:47:33.317Z,65.32
2023-09-03T03:50:00.590Z,65.07
2023-09-03T03:52:27.740Z,65.29
2023-09-03T03:54:55.127Z,64.85
2023-09-03T03:57:22.496Z,64.68
2023-09-03T03:59:50.390Z,64.82
2023-09-03T04:02:18.452Z,64.36
2023-09-03T04:04:45.726Z,64.10
2023-09-03T04:07:12.987Z,64.07
2023-09-03T04:09:41.389Z,63.76
2023-09-03T04:12:08.942Z,63.41
2023-09-03T04:14:37.174Z,63.67
2023-09-03T04:17:05.373Z,63.47
2023-09-03T04:19:33.075Z,63.29
2023-09-03T04:22:01.065Z,63.39
2023-09-03T04:24:28.461Z,63.00
2023-09-03T04:26:55.672Z,62.83
2023-09-03T04:29:23.485Z,62.64
2023-09-03T04:31:50.940Z,62.70
2023-09-03T04:34:18.282Z,62.68
2023-09-03T04:36:45.972Z,62.67
2023-09-03T04:39:14.027Z,62.61
2023-09-03T04:41:42.010Z,62.33
2023-09-03T04:44:12.443Z,62.26
2023-09-03T04:46:43.716Z,62.08
2023-09-03T04:49:11.972Z,61.85
2023-09-03T04:51:39.390Z,61.40
2023-09-03T04:54:06.917Z,61.68
2023-09-03T04:56:34.316Z,61.71
2023-09-03T04:59:02.400Z,61.61
2023-09-03T05:01:29.676Z,61.44
2023-09-03T05:04:06.645Z,61.62
2023-09-03T05:06:34.017Z,61.23
2023-09-03T05:09:03.280Z,61.04
2023-09-03T05:11:30.848Z,60.87
2023-09-03T05:13:59.121Z,60.77
2023-09-03T05:16:28.459Z,60.42
2023-09-03T05:18:56.280Z,60.54
2023-09-03T05:21:24.601Z,60.39
2023-09-03T05:23:52.327Z,60.01
2023-09-03T05:26:19.667Z,60.16
2023-09-03T05:28:47.121Z,59.68
2023-09-03T05:31:14.498Z,59.23
2023-09-03T05:33:43.085Z,59.13
2023-09-03T05:36:11.875Z,59.30
2023-09-03T05:38:40.496Z,59.34
2023-09-03T05:41:07.858Z,59.19
2023-09-03T05:43:35.254Z,59.49
2023-09-03T05:46:03.978Z,59.80
2023-09-03T05:48:33.008Z,59.67
2023-09-03T05:51:05.368Z,59.41
2023-09-03T05:53:35.832Z,59.42
2023-09-03T05:56:08.023Z,59.30
2023-09-03T05:58:36.755Z,59.23
2023-09-03T06:01:08.939Z,58.91
2023-09-03T06:03:37.526Z,58.77
2023-09-03T06:06:05.946Z,58.92
2023-09-03T06:08:35.575Z,58.40
2023-09-03T06:11:03.585Z,58.24
2023-09-03T06:13:33.030Z,58.19
2023-09-03T06:16:00.672Z,57.97
2023-09-03T06:18:28.197Z,57.60
2023-09-03T06:20:55.696Z,57.49
2023-09-03T06:23:23.089Z,57.53
2023-09-03T06:25:52.244Z,57.55
2023-09-03T06:28:20.041Z,57.01
2023-09-03T06:30:47.681Z,57.20
2023-09-03T06:33:15.172Z,57.16
2023-09-03T06:35:42.682Z,56.62
2023-09-03T06:38:09.925Z,56.34
2023-09-03T06:40:37.274Z,56.67
2023-09-03T06:43:04.822Z,56.66
2023-09-03T06:45:33.840Z,56.55
2023-09-03T06:48:01.528Z,56.13
2023-09-03T06:50:29.139Z,55.49
2023-09-03T06:52:56.530Z,54.90
2023-09-03T06:55:23.990Z,55.11
2023-09-03T06:57:51.118Z,54.97
2023-09-03T07:00:18.512Z,54.51
2023-09-03T07:02:45.829Z,54.28
2023-09-03T07:05:13.015Z,54.00
2023-09-03T07:07:40.200Z,54.08
2023-09-03T07:10:07.858Z,54.02
2023-09-03T07:12:35.191Z,54.02
2023-09-03T07:15:02.640Z,53.32
2023-09-03T07:17:33.142Z,53.17
2023-09-03T07:20:00.731Z,52.77
2023-09-03T07:22:28.099Z,52.82
2023-09-03T07:24:55.525Z,52.78
2023-09-03T07:27:22.781Z,52.10
2023-09-03T07:29:54.537Z,51.71
2023-09-03T07:32:22.934Z,51.43
2023-09-03T07:34:54.753Z,50.92
2023-09-03T07:37:22.045Z,51.44
2023-09-03T07:39:49.371Z,51.55
2023-09-03T07:42:16.797Z,51.23
2023-09-03T07:44:44.095Z,50.38
2023-09-03T07:47:11.492Z,50.58
2023-09-03T07:49:38.728Z,50.87
2023-09-03T07:52:11.058Z,50.62
2023-09-03T07:54:38.442Z,50.66
2023-09-03T07:57:06.197Z,50.66
2023-09-03T07:59:33.384Z,50.06
2023-09-03T08:02:02.229Z,49.76
2023-09-03T08:04:30.147Z,49.66
2023-09-03T08:06:57.692Z,49.94
2023-09-03T08:09:25.660Z,49.86
2023-09-03T08:11:54.172Z,49.65
2023-09-03T08:14:21.626Z,49.38
2023-09-03T08:16:48.931Z,49.31
2023-09-03T08:19:16.625Z,48.85
2023-09-03T08:21:43.815Z,48.45
2023-09-03T08:24:11.150Z,48.45
2023-09-03T08:26:38.796Z,48.16
2023-09-03T08:29:06.050Z,47.83
2023-09-03T08:31:33.521Z,47.02
2023-09-03T08:34:01.177Z,46.99
2023-09-03T08:36:28.273Z,46.95
2023-09-03T08:38:55.508Z,46.71
2023-09-03T08:41:26.684Z,46.38
2023-09-03T08:43:58.535Z,46.38
2023-09-03T08:46:29.897Z,46.33
2023-09-03T08:48:58.261Z,45.68
2023-09-03T08:51:27.677Z,45.60
2023-09-03T08:53:58.223Z,45.87
2023-09-03T08:56:25.913Z,45.62
2023-09-03T08:58:54.149Z,45.38
2023-09-03T09:01:23.401Z,45.32
2023-09-03T09:03:55.914Z,45.68
2023-09-03T09:06:24.484Z,45.22
2023-09-03T09:08:52.610Z,44.75
2023-09-03T09:11:20.874Z,44.52
2023-09-03T09:13:59.598Z,43.99
2023-09-03T09:16:26.942Z,44.38
2023-09-03T09:18:56.623Z,43.98
2023-09-03T09:21:24.056Z,43.32
2023-09-03T09:23:51.486Z,43.39
2023-09-03T09:26:20.552Z,43.98
2023-09-03T09:29:08.190Z,43.65
2023-09-03T09:31:36.877Z,43.48
2023-09-03T09:34:14.326Z,42.58
2023-09-03T09:36:57.897Z,42.33
2023-09-03T09:39:26.513Z,42.39
2023-09-03T09:42:08.446Z,42.73
2023-09-03T09:44:35.968Z,42.36
2023-09-03T09:47:19.541Z,41.94
2023-09-03T09:49:47.338Z,41.50
2023-09-03T09:52:16.217Z,41.73
2023-09-03T09:54:44.461Z,41.37
2023-09-03T09:57:22.253Z,41.17
2023-09-03T10:00:01.200Z,41.48
2023-09-03T10:02:38.608Z,41.73
2023-09-03T10:05:11.851Z,41.13
2023-09-03T10:07:42.278Z,41.77
2023-09-03T10:10:10.495Z,41.54
2023-09-03T10:12:38.119Z,41.01
2023-09-03T10:15:05.981Z,40.64
2023-09-03T10:17:35.745Z,40.57
2023-09-03T10:20:05.871Z,40.26
2023-09-03T10:22:38.154Z,39.80
2023-09-03T10:25:09.832Z,39.72
2023-09-03T10:27:41.209Z,39.93
2023-09-03T10:30:12.926Z,39.96
2023-09-03T10:32:40.533Z,39.94
2023-09-03T10:35:09.406Z,39.78
2023-09-03T10:37:38.822Z,39.31
2023-09-03T10:40:26.108Z,39.23
2023-09-03T10:42:54.870Z,38.79
2023-09-03T10:45:22.394Z,38.95
2023-09-03T10:48:03.824Z,38.33
2023-09-03T10:50:51.750Z,38.07
2023-09-03T10:53:37.943Z,38.14
2023-09-03T10:56:15.543Z,38.01
2023-09-03T10:59:00.171Z,38.23
2023-09-03T11:01:31.621Z,38.16
2023-09-03T11:04:05.638Z,37.08
2023-09-03T11:06:34.624Z,37.36
2023-09-03T11:09:05.463Z,36.78
2023-09-03T11:11:38.027Z,36.95
2023-09-03T11:14:13.342Z,37.16
2023-09-03T11:16:41.828Z,37.18
2023-09-03T11:19:09.422Z,37.52
2023-09-03T11:21:38.860Z,37.17
2023-09-03T11:24:18.432Z,36.80
2023-09-03T11:26:46.616Z,37.15
2023-09-03T11:29:25.229Z,36.98
2023-09-03T11:31:52.928Z,37.06
2023-09-03T11:34:24.883Z,37.19
2023-09-03T11:36:52.794Z,36.89
2023-09-03T11:39:20.205Z,36.89
2023-09-03T11:41:48.101Z,36.46
2023-09-03T11:44:16.056Z,36.85
2023-09-03T11:46:59.070Z,36.20
2023-09-03T11:49:26.964Z,37.07
2023-09-03T11:51:55.277Z,36.65
2023-09-03T11:54:28.995Z,36.05
2023-09-03T11:57:00.856Z,36.22
2023-09-03T11:59:28.280Z,36.23
2023-09-03T12:01:55.988Z,36.04
2023-09-03T12:04:23.625Z,35.76
2023-09-03T12:06:51.163Z,35.72
2023-09-03T12:09:24.056Z,35.09
2023-09-03T12:11:52.132Z,34.93
2023-09-03T12:14:32.959Z,34.54
2023-09-03T12:17:00.432Z,35.75
2023-09-03T12:19:43.636Z,35.87
2023-09-03T12:22:11.088Z,35.75
2023-09-03T12:24:38.496Z,35.50
2023-09-03T12:27:06.823Z,35.42
2023-09-03T12:29:51.761Z,34.84
2023-09-03T12:32:34.654Z,34.56
2023-09-03T12:35:13.429Z,34.23
2023-09-03T12:37:43.490Z,33.73
2023-09-03T12:40:12.194Z,34.01
2023-09-03T12:42:39.552Z,33.93
2023-09-03T12:45:09.225Z,34.05
2023-09-03T12:47:36.850Z,33.97
2023-09-03T12:50:04.473Z,34.23
2023-09-03T12:52:31.800Z,33.73
2023-09-03T12:54:59.083Z,33.71
2023-09-03T12:57:28.101Z,33.75
2023-09-03T12:59:55.377Z,34.08
2023-09-03T13:02:22.703Z,33.89
2023-09-03T13:04:49.901Z,34.15
2023-09-03T13:07:17.495Z,34.58
2023-09-03T13:09:44.733Z,34.31
2023-09-03T13:12:12.476Z,33.74
2023-09-03T13:14:39.652Z,33.28
2023-09-03T13:17:06.811Z,33.34
2023-09-03T13:19:34.111Z,33.21
2023-09-03T13:22:01.328Z,33.64
2023-09-03T13:24:29.115Z,33.31
2023-09-03T13:26:56.214Z,32.78
2023-09-03T13:29:23.646Z,32.49
2023-09-03T13:31:50.990Z,32.38
2023-09-03T13:34:18.504Z,32.71
2023-09-03T13:36:48.017Z,32.47
2023-09-03T13:39:16.951Z,32.47
2023-09-03T13:41:44.188Z,32.97
2023-09-03T13:44:11.348Z,32.58
2023-09-03T13:46:38.794Z,32.96
2023-09-03T13:49:06.175Z,32.76
2023-09-03T13:51:33.590Z,32.76
2023-09-03T13:54:01.231Z,32.27
2023-09-03T13:56:28.878Z,32.86
2023-09-03T13:58:58.791Z,32.88
2023-09-03T14:01:26.082Z,32.79
2023-09-03T14:03:53.518Z,32.56
2023-09-03T14:06:20.775Z,32.81
2023-09-03T14:08:48.987Z,32.55
2023-09-03T14:11:16.514Z,32.91
2023-09-03T14:13:45.924Z,32.78
2023-09-03T14:16:19.640Z,32.21
2023-09-03T14:18:47.246Z,32.35
2023-09-03T14:21:14.879Z,32.44
2023-09-03T14:23:42.077Z,32.20
2023-09-03T14:26:17.278Z,31.72
2023-09-03T14:28:45.921Z,31.75
2023-09-03T14:31:13.481Z,31.23
2023-09-03T14:33:40.996Z,31.77
2023-09-03T14:36:08.340Z,31.71
2023-09-03T14:38:35.639Z,31.85
2023-09-03T14:41:02.872Z,31.66
2023-09-03T14:43:30.458Z,31.57
2023-09-03T14:46:01.551Z,31.46
2023-09-03T14:48:29.525Z,31.73
2023-09-03T14:50:57.050Z,31.66
2023-09-03T14:53:24.370Z,31.46
2023-09-03T14:55:51.817Z,31.49
2023-09-03T14:58:19.388Z,31.59
2023-09-03T15:00:48.342Z,31.76
2023-09-03T15:03:16.569Z,31.88
2023-09-03T15:05:44.236Z,31.70
2023-09-03T15:08:12.765Z,32.05
2023-09-03T15:10:41.013Z,31.92
2023-09-03T15:13:08.300Z,31.86
2023-09-03T15:15:38.957Z,32.13
2023-09-03T15:18:09.993Z,32.19
2023-09-03T15:20:37.388Z,32.02
2023-09-03T15:23:04.824Z,32.08
2023-09-03T15:25:32.280Z,32.29
2023-09-03T15:27:59.390Z,32.20
2023-09-03T15:30:29.359Z,32.33
2023-09-03T15:32:59.143Z,32.66
2023-09-03T15:35:27.745Z,33.05
2023-09-03T15:37:55.004Z,33.34
2023-09-03T15:40:22.471Z,33.59
2023-09-03T15:42:49.831Z,33.34
2023-09-03T15:45:17.578Z,33.77
2023-09-03T15:47:44.767Z,33.49
2023-09-03T15:50:12.037Z,33.75
2023-09-03T15:52:39.275Z,33.77
2023-09-03T15:55:07.524Z,33.83
2023-09-03T15:57:34.861Z,34.07
2023-09-03T16:00:04.440Z,34.17
2023-09-03T16:02:34.670Z,34.56
2023-09-03T16:05:04.019Z,34.55
2023-09-03T16:07:31.650Z,34.30
2023-09-03T16:09:58.847Z,34.41
2023-09-03T16:12:28.773Z,34.73
2023-09-03T16:14:56.592Z,34.76
2023-09-03T16:17:24.466Z,34.71
2023-09-03T16:19:52.282Z,34.98
2023-09-03T16:22:20.971Z,35.10
2023-09-03T16:24:49.081Z,35.19
2023-09-03T16:27:17.247Z,35.50
2023-09-03T16:29:51.773Z,35.47
2023-09-03T16:32:19.312Z,35.48
2023-09-03T16:34:51.419Z,35.87
2023-09-03T16:37:23.141Z,35.91
2023-09-03T16:39:51.468Z,35.78
2023-09-03T16:42:18.770Z,36.23
2023-09-03T16:44:46.496Z,36.26
2023-09-03T16:47:13.663Z,36.42
2023-09-03T16:49:40.990Z,36.26
2023-09-03T16:52:08.793Z,36.67
2023-09-03T16:54:38.845Z,36.57
2023-09-03T16:57:06.084Z,36.45
2023-09-03T16:59:33.341Z,36.73
2023-09-03T17:02:01.641Z,36.71
2023-09-03T17:04:28.955Z,36.54
2023-09-03T17:06:57.134Z,36.49
2023-09-03T17:09:24.365Z,36.56
2023-09-03T17:11:53.093Z,36.77
2023-09-03T17:14:20.370Z,36.65
2023-09-03T17:16:47.920Z,36.54
2023-09-03T17:19:15.235Z,36.53
2023-09-03T17:21:42.904Z,36.74
2023-09-03T17:24:10.483Z,36.92
2023-09-03T17:26:37.646Z,36.74
2023-09-03T17:29:11.071Z,36.61
2023-09-03T17:31:38.450Z,36.79
2023-09-03T17:34:05.950Z,36.83
2023-09-03T17:36:33.823Z,36.86
2023-09-03T17:39:02.121Z,37.00
2023-09-03T17:41:29.627Z,36.88
2023-09-03T17:43:57.040Z,37.09
2023-09-03T17:46:24.508Z,36.83
2023-09-03T17:48:51.950Z,36.79
2023-09-03T17:51:19.135Z,36.96
2023-09-03T17:53:46.363Z,37.24
2023-09-03T17:56:13.715Z,37.32
2023-09-03T17:58:41.079Z,37.36
2023-09-03T18:01:08.426Z,37.55
2023-09-03T18:03:36.188Z,37.59
2023-09-03T18:06:11.697Z,37.77
2023-09-03T18:08:40.168Z,37.88
2023-09-03T18:11:18.962Z,37.88
2023-09-03T18:13:46.822Z,37.95
2023-09-03T18:16:15.673Z,38.38
2023-09-03T18:18:45.618Z,38.39
2023-09-03T18:21:16.405Z,38.79
2023-09-03T18:23:47.318Z,38.54
2023-09-03T18:26:16.174Z,38.36
2023-09-03T18:28:47.524Z,38.63
2023-09-03T18:31:15.790Z,38.31
2023-09-03T18:33:43.234Z,38.52
2023-09-03T18:36:10.622Z,38.39
2023-09-03T18:38:37.862Z,38.56
2023-09-03T18:41:05.389Z,38.94
2023-09-03T18:43:32.973Z,38.73
2023-09-03T18:46:02.049Z,38.89
2023-09-03T18:48:29.543Z,38.71
2023-09-03T18:51:01.483Z,38.84
2023-09-03T18:53:28.907Z,38.92
2023-09-03T18:55:56.119Z,39.23
2023-09-03T18:58:23.872Z,39.53
2023-09-03T19:00:51.086Z,39.28
2023-09-03T19:03:18.536Z,39.26
2023-09-03T19:05:49.263Z,39.23
2023-09-03T19:08:17.456Z,40.02
2023-09-03T19:10:45.009Z,39.83
2023-09-03T19:13:12.301Z,40.04
2023-09-03T19:15:40.272Z,40.19
2023-09-03T19:18:14.250Z,39.82
2023-09-03T19:20:41.709Z,40.05
2023-09-03T19:23:11.631Z,40.21
2023-09-03T19:25:43.558Z,40.22
2023-09-03T19:28:16.147Z,40.65
2023-09-03T19:30:44.689Z,40.38
2023-09-03T19:33:12.409Z,40.61
2023-09-03T19:35:39.805Z,40.66
2023-09-03T19:38:07.705Z,41.02
2023-09-03T19:40:35.652Z,40.99
2023-09-03T19:43:03.062Z,41.03
2023-09-03T19:45:30.174Z,40.84
2023-09-03T19:48:20.809Z,41.22
2023-09-03T19:50:49.194Z,41.39
2023-09-03T19:53:16.587Z,41.16
2023-09-03T19:55:44.266Z,41.30
2023-09-03T19:58:15.181Z,41.61
2023-09-03T20:00:45.153Z,41.47
2023-09-03T20:03:13.590Z,41.61
2023-09-03T20:05:42.294Z,42.19
2023-09-03T20:08:09.829Z,42.03
2023-09-03T20:10:38.519Z,42.32
2023-09-03T20:13:08.788Z,42.55
2023-09-03T20:15:39.701Z,42.50
2023-09-03T20:18:07.576Z,42.95
2023-09-03T20:20:36.742Z,42.95
2023-09-03T20:23:05.129Z,42.64
2023-09-03T20:25:32.450Z,43.34
2023-09-03T20:27:59.837Z,43.18
2023-09-03T20:30:27.991Z,43.00
2023-09-03T20:32:55.767Z,43.35
2023-09-03T20:35:23.977Z,43.50
2023-09-03T20:37:52.194Z,43.60
2023-09-03T20:40:20.053Z,43.79
2023-09-03T20:42:47.204Z,43.59
2023-09-03T20:45:23.220Z,43.79
2023-09-03T20:47:51.501Z,43.74
2023-09-03T20:50:19.360Z,44.05
2023-09-03T20:52:46.606Z,43.84
2023-09-03T20:55:13.906Z,44.36
2023-09-03T20:57:43.290Z,44.20
2023-09-03T21:00:11.635Z,44.36
2023-09-03T21:02:42.364Z,44.42
2023-09-03T21:05:11.545Z,44.58
2023-09-03T21:07:38.771Z,44.75
2023-09-03T21:10:07.280Z,44.37
2023-09-03T21:12:35.534Z,44.47
2023-09-03T21:15:02.753Z,44.54
2023-09-03T21:17:32.981Z,44.56
2023-09-03T21:20:00.373Z,44.36
2023-09-03T21:22:27.734Z,44.20
2023-09-03T21:24:54.910Z,44.02
2023-09-03T21:27:22.127Z,44.21
2023-09-03T21:29:49.710Z,44.37
2023-09-03T21:32:17.556Z,44.37
2023-09-03T21:34:44.893Z,44.26
2023-09-03T21:37:12.066Z,44.32
2023-09-03T21:39:39.239Z,44.17
2023-09-03T21:42:08.654Z,44.40
2023-09-03T21:44:35.862Z,44.53
2023-09-03T21:47:03.261Z,44.34
2023-09-03T21:49:31.221Z,44.67
2023-09-03T21:51:58.779Z,44.69
2023-09-03T21:54:27.357Z,44.68
2023-09-03T21:56:55.641Z,44.46
2023-09-03T21:59:23.292Z,44.87
2023-09-03T22:01:50.770Z,44.69
2023-09-03T22:04:19.149Z,45.05
2023-09-03T22:06:47.704Z,44.84
2023-09-03T22:09:14.895Z,44.89
2023-09-03T22:11:42.245Z,44.81
2023-09-03T22:14:09.525Z,45.09
2023-09-03T22:16:36.716Z,45.30
2023-09-03T22:19:12.954Z,45.42
2023-09-03T22:21:51.959Z,45.81
2023-09-03T22:24:19.094Z,45.99
2023-09-03T22:26:46.413Z,45.88
2023-09-03T22:29:14.244Z,46.18
2023-09-03T22:31:41.666Z,46.28
2023-09-03T22:34:09.211Z,46.07
2023-09-03T22:36:36.445Z,46.18
2023-09-03T22:39:04.298Z,46.28
2023-09-03T22:41:31.421Z,46.14
2023-09-03T22:43:59.969Z,46.22
2023-09-03T22:46:27.313Z,46.23
2023-09-03T22:48:54.762Z,46.16
2023-09-03T22:51:21.892Z,45.95
2023-09-03T22:53:49.024Z,45.48
2023-09-03T22:56:16.569Z,45.43
2023-09-03T22:58:44.196Z,45.18
2023-09-03T23:01:12.610Z,45.40
2023-09-03T23:03:40.114Z,45.33
2023-09-03T23:06:07.584Z,44.99
2023-09-03T23:08:35.529Z,45.02
2023-09-03T23:11:05.549Z,44.82
2023-09-03T23:13:32.768Z,44.79
2023-09-03T23:16:00.140Z,44.76
2023-09-03T23:18:29.615Z,44.94
2023-09-03T23:20:57.444Z,45.16
2023-09-03T23:23:26.542Z,45.01
2023-09-03T23:25:53.806Z,45.16
2023-09-03T23:28:21.821Z,44.74
2023-09-03T23:30:50.258Z,44.98
2023-09-03T23:33:17.525Z,44.45
2023-09-03T23:35:44.905Z,44.01
2023-09-03T23:38:12.082Z,43.79
2023-09-03T23:40:39.750Z,44.44
2023-09-03T23:43:07.026Z,45.20
2023-09-03T23:45:34.505Z,45.10
2023-09-03T23:48:01.666Z,44.89
2023-09-03T23:50:29.390Z,44.11
2023-09-03T23:52:56.658Z,43.92
2023-09-03T23:55:23.886Z,43.88
2023-09-03T23:57:51.146Z,43.43
